sensor_id;sensor_type;location;lat;lon;timestamp;pressure;altitude;pressure_sealevel;temperature;humidity
78206;BME280;67480;48.920;12.880;2024-01-30T00:00:14;98461.94;;;1.94;64.67
78206;BME280;67480;48.920;12.880;2024-01-30T00:02:39;98460.41;;;1.92;64.68
78206;BME280;67480;48.920;12.880;2024-01-30T00:05:04;98462.19;;;1.91;64.77
78206;BME280;67480;48.920;12.880;2024-01-30T00:07:30;98465.69;;;1.90;64.60
78206;BME280;67480;48.920;12.880;2024-01-30T00:09:55;98458.09;;;1.89;63.95
78206;BME280;67480;48.920;12.880;2024-01-30T00:12:20;98460.78;;;1.87;63.73
78206;BME280;67480;48.920;12.880;2024-01-30T00:14:46;98460.09;;;1.85;63.63
78206;BME280;67480;48.920;12.880;2024-01-30T00:17:11;98456.56;;;1.86;63.33
78206;BME280;67480;48.920;12.880;2024-01-30T00:19:36;98459.00;;;1.88;63.09
78206;BME280;67480;48.920;12.880;2024-01-30T00:22:01;98461.50;;;1.89;63.13
78206;BME280;67480;48.920;12.880;2024-01-30T00:24:26;98463.13;;;1.90;63.07
78206;BME280;67480;48.920;12.880;2024-01-30T00:26:52;98465.59;;;1.92;63.03
78206;BME280;67480;48.920;12.880;2024-01-30T00:29:17;98466.28;;;1.94;62.39
78206;BME280;67480;48.920;12.880;2024-01-30T00:31:44;98465.44;;;1.93;62.06
78206;BME280;67480;48.920;12.880;2024-01-30T00:34:10;98458.66;;;1.92;62.20
78206;BME280;67480;48.920;12.880;2024-01-30T00:36:35;98462.03;;;1.93;62.05
78206;BME280;67480;48.920;12.880;2024-01-30T00:39:00;98454.44;;;1.91;62.44
78206;BME280;67480;48.920;12.880;2024-01-30T00:41:25;98454.69;;;1.88;62.01
78206;BME280;67480;48.920;12.880;2024-01-30T00:43:51;98458.19;;;1.87;62.01
78206;BME280;67480;48.920;12.880;2024-01-30T00:46:17;98455.63;;;1.87;62.55
78206;BME280;67480;48.920;12.880;2024-01-30T00:48:42;98449.63;;;1.87;62.49
78206;BME280;67480;48.920;12.880;2024-01-30T00:51:07;98448.81;;;1.86;62.34
78206;BME280;67480;48.920;12.880;2024-01-30T00:53:32;98452.31;;;1.85;61.96
78206;BME280;67480;48.920;12.880;2024-01-30T00:55:58;98450.69;;;1.84;62.33
78206;BME280;67480;48.920;12.880;2024-01-30T00:58:23;98451.66;;;1.83;62.09
78206;BME280;67480;48.920;12.880;2024-01-30T01:00:48;98447.41;;;1.82;62.22
78206;BME280;67480;48.920;12.880;2024-01-30T01:03:13;98449.31;;;1.80;62.84
78206;BME280;67480;48.920;12.880;2024-01-30T01:05:39;98456.25;;;1.79;62.61
78206;BME280;67480;48.920;12.880;2024-01-30T01:08:04;98458.25;;;1.76;62.63
78206;BME280;67480;48.920;12.880;2024-01-30T01:10:29;98457.56;;;1.74;62.70
78206;BME280;67480;48.920;12.880;2024-01-30T01:12:54;98453.50;;;1.71;62.67
78206;BME280;67480;48.920;12.880;2024-01-30T01:15:20;98457.00;;;1.70;62.79
78206;BME280;67480;48.920;12.880;2024-01-30T01:17:45;98454.56;;;1.69;62.98
78206;BME280;67480;48.920;12.880;2024-01-30T01:20:10;98459.72;;;1.69;62.68
78206;BME280;67480;48.920;12.880;2024-01-30T01:22:36;98460.66;;;1.68;62.70
78206;BME280;67480;48.920;12.880;2024-01-30T01:25:03;98459.84;;;1.67;62.66
78206;BME280;67480;48.920;12.880;2024-01-30T01:27:31;98461.63;;;1.67;62.78
78206;BME280;67480;48.920;12.880;2024-01-30T01:29:57;98456.44;;;1.67;62.65
78206;BME280;67480;48.920;12.880;2024-01-30T01:32:23;98458.06;;;1.68;62.77
78206;BME280;67480;48.920;12.880;2024-01-30T01:34:48;98458.22;;;1.66;62.53
78206;BME280;67480;48.920;12.880;2024-01-30T01:37:13;98452.22;;;1.66;62.56
78206;BME280;67480;48.920;12.880;2024-01-30T01:39:38;98447.72;;;1.68;63.00
78206;BME280;67480;48.920;12.880;2024-01-30T01:42:04;98454.56;;;1.69;62.73
78206;BME280;67480;48.920;12.880;2024-01-30T01:44:29;98453.72;;;1.68;62.70
78206;BME280;67480;48.920;12.880;2024-01-30T01:46:54;98446.91;;;1.67;62.83
78206;BME280;67480;48.920;12.880;2024-01-30T01:49:20;98451.28;;;1.67;63.02
78206;BME280;67480;48.920;12.880;2024-01-30T01:51:46;98446.22;;;1.65;62.93
78206;BME280;67480;48.920;12.880;2024-01-30T01:54:12;98446.34;;;1.64;62.96
78206;BME280;67480;48.920;12.880;2024-01-30T01:56:39;98449.06;;;1.62;62.83
78206;BME280;67480;48.920;12.880;2024-01-30T01:59:05;98450.81;;;1.61;63.05
78206;BME280;67480;48.920;12.880;2024-01-30T02:01:34;98442.38;;;1.59;63.16
78206;BME280;67480;48.920;12.880;2024-01-30T02:04:01;98439.13;;;1.57;62.53
78206;BME280;67480;48.920;12.880;2024-01-30T02:06:26;98433.09;;;1.57;63.00
78206;BME280;67480;48.920;12.880;2024-01-30T02:08:51;98438.41;;;1.55;63.05
78206;BME280;67480;48.920;12.880;2024-01-30T02:11:17;98443.56;;;1.55;63.19
78206;BME280;67480;48.920;12.880;2024-01-30T02:13:43;98445.47;;;1.53;63.42
78206;BME280;67480;48.920;12.880;2024-01-30T02:16:08;98429.97;;;1.53;63.45
78206;BME280;67480;48.920;12.880;2024-01-30T02:18:33;98439.47;;;1.53;63.26
78206;BME280;67480;48.920;12.880;2024-01-30T02:20:58;98436.06;;;1.52;63.22
78206;BME280;67480;48.920;12.880;2024-01-30T02:23:26;98436.88;;;1.53;63.20
78206;BME280;67480;48.920;12.880;2024-01-30T02:25:52;98434.31;;;1.53;63.09
78206;BME280;67480;48.920;12.880;2024-01-30T02:28:18;98433.50;;;1.52;62.99
78206;BME280;67480;48.920;12.880;2024-01-30T02:30:43;98435.94;;;1.54;63.17
78206;BME280;67480;48.920;12.880;2024-01-30T02:33:08;98425.03;;;1.50;62.78
78206;BME280;67480;48.920;12.880;2024-01-30T02:35:33;98425.03;;;1.50;62.84
78206;BME280;67480;48.920;12.880;2024-01-30T02:37:59;98426.91;;;1.48;62.95
78206;BME280;67480;48.920;12.880;2024-01-30T02:40:24;98427.88;;;1.47;62.90
78206;BME280;67480;48.920;12.880;2024-01-30T02:42:49;98428.69;;;1.48;63.18
78206;BME280;67480;48.920;12.880;2024-01-30T02:45:15;98429.50;;;1.48;63.06
78206;BME280;67480;48.920;12.880;2024-01-30T02:47:40;98430.47;;;1.47;62.97
78206;BME280;67480;48.920;12.880;2024-01-30T02:50:06;98431.53;;;1.45;62.99
78206;BME280;67480;48.920;12.880;2024-01-30T02:52:31;98431.66;;;1.43;63.11
78206;BME280;67480;48.920;12.880;2024-01-30T02:54:56;98430.72;;;1.44;62.79
78206;BME280;67480;48.920;12.880;2024-01-30T02:57:22;98436.69;;;1.45;63.22
78206;BME280;67480;48.920;12.880;2024-01-30T02:59:47;98427.19;;;1.45;62.83
78206;BME280;67480;48.920;12.880;2024-01-30T03:02:12;98434.09;;;1.45;62.98
78206;BME280;67480;48.920;12.880;2024-01-30T03:04:37;98440.09;;;1.45;63.02
78206;BME280;67480;48.920;12.880;2024-01-30T03:07:05;98427.19;;;1.45;62.98
78206;BME280;67480;48.920;12.880;2024-01-30T03:09:30;98429.75;;;1.45;63.02
78206;BME280;67480;48.920;12.880;2024-01-30T03:11:55;98435.88;;;1.44;63.11
78206;BME280;67480;48.920;12.880;2024-01-30T03:14:21;98429.91;;;1.44;63.40
78206;BME280;67480;48.920;12.880;2024-01-30T03:16:46;98428.25;;;1.43;63.23
78206;BME280;67480;48.920;12.880;2024-01-30T03:19:11;98432.59;;;1.42;63.22
78206;BME280;67480;48.920;12.880;2024-01-30T03:21:36;98435.19;;;1.42;63.11
78206;BME280;67480;48.920;12.880;2024-01-30T03:24:01;98431.78;;;1.42;62.98
78206;BME280;67480;48.920;12.880;2024-01-30T03:26:27;98434.25;;;1.43;63.01
78206;BME280;67480;48.920;12.880;2024-01-30T03:28:52;98427.69;;;1.39;63.10
78206;BME280;67480;48.920;12.880;2024-01-30T03:31:17;98426.88;;;1.38;62.96
78206;BME280;67480;48.920;12.880;2024-01-30T03:33:42;98427.69;;;1.39;63.21
78206;BME280;67480;48.920;12.880;2024-01-30T03:36:08;98422.75;;;1.36;63.13
78206;BME280;67480;48.920;12.880;2024-01-30T03:38:33;98421.13;;;1.35;63.27
78206;BME280;67480;48.920;12.880;2024-01-30T03:40:59;98414.31;;;1.34;63.25
78206;BME280;67480;48.920;12.880;2024-01-30T03:43:24;98424.66;;;1.34;63.48
78206;BME280;67480;48.920;12.880;2024-01-30T03:45:49;98418.81;;;1.32;63.44
78206;BME280;67480;48.920;12.880;2024-01-30T03:48:15;98421.94;;;1.35;63.51
78206;BME280;67480;48.920;12.880;2024-01-30T03:50:40;98415.00;;;1.36;63.58
78206;BME280;67480;48.920;12.880;2024-01-30T03:53:05;98409.75;;;1.37;63.94
78206;BME280;67480;48.920;12.880;2024-01-30T03:55:30;98414.66;;;1.41;63.61
78206;BME280;67480;48.920;12.880;2024-01-30T03:57:55;98412.19;;;1.39;63.56
78206;BME280;67480;48.920;12.880;2024-01-30T04:00:21;98414.91;;;1.37;63.67
78206;BME280;67480;48.920;12.880;2024-01-30T04:02:46;98413.25;;;1.36;63.64
78206;BME280;67480;48.920;12.880;2024-01-30T04:05:11;98420.06;;;1.37;63.59
78206;BME280;67480;48.920;12.880;2024-01-30T04:07:36;98413.25;;;1.36;63.57
78206;BME280;67480;48.920;12.880;2024-01-30T04:10:02;98417.59;;;1.36;63.44
78206;BME280;67480;48.920;12.880;2024-01-30T04:12:27;98416.91;;;1.34;63.35
78206;BME280;67480;48.920;12.880;2024-01-30T04:14:52;98407.78;;;1.30;63.52
78206;BME280;67480;48.920;12.880;2024-01-30T04:17:17;98424.91;;;1.31;63.65
78206;BME280;67480;48.920;12.880;2024-01-30T04:19:42;98414.69;;;1.29;63.71
78206;BME280;67480;48.920;12.880;2024-01-30T04:22:07;98425.84;;;1.30;63.69
78206;BME280;67480;48.920;12.880;2024-01-30T04:24:33;98429.25;;;1.30;63.49
78206;BME280;67480;48.920;12.880;2024-01-30T04:26:58;98430.88;;;1.31;63.51
78206;BME280;67480;48.920;12.880;2024-01-30T04:29:23;98423.00;;;1.33;63.64
78206;BME280;67480;48.920;12.880;2024-01-30T04:31:48;98426.56;;;1.32;63.70
78206;BME280;67480;48.920;12.880;2024-01-30T04:34:13;98429.13;;;1.32;63.51
78206;BME280;67480;48.920;12.880;2024-01-30T04:36:39;98421.59;;;1.29;63.81
78206;BME280;67480;48.920;12.880;2024-01-30T04:39:04;98437.94;;;1.29;63.75
78206;BME280;67480;48.920;12.880;2024-01-30T04:41:29;98438.19;;;1.26;64.12
78206;BME280;67480;48.920;12.880;2024-01-30T04:43:56;98440.78;;;1.26;64.25
78206;BME280;67480;48.920;12.880;2024-01-30T04:46:21;98437.59;;;1.23;64.27
78206;BME280;67480;48.920;12.880;2024-01-30T04:48:47;98435.97;;;1.22;64.47
78206;BME280;67480;48.920;12.880;2024-01-30T04:51:12;98436.22;;;1.19;64.52
78206;BME280;67480;48.920;12.880;2024-01-30T04:53:37;98439.63;;;1.19;64.85
78206;BME280;67480;48.920;12.880;2024-01-30T04:56:04;98440.44;;;1.20;64.67
78206;BME280;67480;48.920;12.880;2024-01-30T04:58:29;98438.00;;;1.18;64.73
78206;BME280;67480;48.920;12.880;2024-01-30T05:00:55;98438.00;;;1.18;64.30
78206;BME280;67480;48.920;12.880;2024-01-30T05:03:20;98442.31;;;1.17;64.33
78206;BME280;67480;48.920;12.880;2024-01-30T05:05:47;98443.25;;;1.16;64.21
78206;BME280;67480;48.920;12.880;2024-01-30T05:08:12;98439.97;;;1.14;63.91
78206;BME280;67480;48.920;12.880;2024-01-30T05:10:37;98440.81;;;1.15;64.42
78206;BME280;67480;48.920;12.880;2024-01-30T05:13:03;98443.50;;;1.13;64.59
78206;BME280;67480;48.920;12.880;2024-01-30T05:15:28;98441.03;;;1.12;64.59
78206;BME280;67480;48.920;12.880;2024-01-30T05:17:53;98452.22;;;1.12;64.06
78206;BME280;67480;48.920;12.880;2024-01-30T05:20:19;98436.00;;;1.10;64.19
78206;BME280;67480;48.920;12.880;2024-01-30T05:22:45;98441.19;;;1.10;64.19
78206;BME280;67480;48.920;12.880;2024-01-30T05:25:10;98439.53;;;1.09;64.63
78206;BME280;67480;48.920;12.880;2024-01-30T05:27:36;98429.22;;;1.09;64.41
78206;BME280;67480;48.920;12.880;2024-01-30T05:30:01;98439.53;;;1.09;64.87
78206;BME280;67480;48.920;12.880;2024-01-30T05:32:26;98431.56;;;1.12;65.04
78206;BME280;67480;48.920;12.880;2024-01-30T05:34:52;98432.38;;;1.13;64.92
78206;BME280;67480;48.920;12.880;2024-01-30T05:37:17;98436.47;;;1.15;64.92
78206;BME280;67480;48.920;12.880;2024-01-30T05:39:43;98441.63;;;1.15;64.70
78206;BME280;67480;48.920;12.880;2024-01-30T05:42:08;98439.97;;;1.14;64.59
78206;BME280;67480;48.920;12.880;2024-01-30T05:44:35;98454.66;;;1.14;64.41
78206;BME280;67480;48.920;12.880;2024-01-30T05:47:00;98444.56;;;1.11;64.43
78206;BME280;67480;48.920;12.880;2024-01-30T05:49:25;98447.28;;;1.09;64.29
78206;BME280;67480;48.920;12.880;2024-01-30T05:51:50;98460.41;;;1.06;64.05
78206;BME280;67480;48.920;12.880;2024-01-30T05:54:15;98453.75;;;1.04;64.44
78206;BME280;67480;48.920;12.880;2024-01-30T05:56:41;98461.63;;;1.02;64.42
78206;BME280;67480;48.920;12.880;2024-01-30T05:59:06;98463.50;;;1.00;64.44
78206;BME280;67480;48.920;12.880;2024-01-30T06:01:31;98461.16;;;0.97;64.49
78206;BME280;67480;48.920;12.880;2024-01-30T06:03:56;98465.50;;;0.97;64.63
78206;BME280;67480;48.920;12.880;2024-01-30T06:06:21;98467.28;;;0.96;64.40
78206;BME280;67480;48.920;12.880;2024-01-30T06:08:47;98462.91;;;0.97;64.74
78206;BME280;67480;48.920;12.880;2024-01-30T06:11:12;98468.91;;;0.97;64.81
78206;BME280;67480;48.920;12.880;2024-01-30T06:13:37;98465.41;;;0.98;65.15
78206;BME280;67480;48.920;12.880;2024-01-30T06:16:02;98466.22;;;0.99;65.13
78206;BME280;67480;48.920;12.880;2024-01-30T06:18:27;98463.63;;;0.99;65.15
78206;BME280;67480;48.920;12.880;2024-01-30T06:20:54;98465.41;;;0.98;65.56
78206;BME280;67480;48.920;12.880;2024-01-30T06:23:19;98463.50;;;1.00;65.51
78206;BME280;67480;48.920;12.880;2024-01-30T06:25:44;98465.25;;;1.00;65.11
78206;BME280;67480;48.920;12.880;2024-01-30T06:28:10;98467.84;;;1.00;65.51
78206;BME280;67480;48.920;12.880;2024-01-30T06:30:35;98470.06;;;1.04;65.28
78206;BME280;67480;48.920;12.880;2024-01-30T06:33:00;98471.84;;;1.04;65.27
78206;BME280;67480;48.920;12.880;2024-01-30T06:35:25;98465.97;;;1.02;65.25
78206;BME280;67480;48.920;12.880;2024-01-30T06:37:51;98472.91;;;1.01;65.20
78206;BME280;67480;48.920;12.880;2024-01-30T06:40:16;98478.16;;;1.00;65.08
78206;BME280;67480;48.920;12.880;2024-01-30T06:42:41;98477.34;;;0.99;65.22
78206;BME280;67480;48.920;12.880;2024-01-30T06:45:06;98473.00;;;1.00;65.01
78206;BME280;67480;48.920;12.880;2024-01-30T06:47:33;98476.63;;;0.97;65.24
78206;BME280;67480;48.920;12.880;2024-01-30T06:49:58;98474.06;;;0.97;65.34
78206;BME280;67480;48.920;12.880;2024-01-30T06:52:23;98469.13;;;0.94;65.13
78206;BME280;67480;48.920;12.880;2024-01-30T06:54:48;98471.84;;;0.92;65.55
78206;BME280;67480;48.920;12.880;2024-01-30T06:57:14;98475.25;;;0.93;65.35
78206;BME280;67480;48.920;12.880;2024-01-30T06:59:39;98486.50;;;0.92;65.50
78206;BME280;67480;48.920;12.880;2024-01-30T07:02:09;98486.50;;;0.92;65.66
78206;BME280;67480;48.920;12.880;2024-01-30T07:04:34;98480.41;;;0.93;65.46
78206;BME280;67480;48.920;12.880;2024-01-30T07:07:00;98483.09;;;0.91;65.12
78206;BME280;67480;48.920;12.880;2024-01-30T07:09:25;98479.72;;;0.91;65.32
78206;BME280;67480;48.920;12.880;2024-01-30T07:11:51;98481.59;;;0.89;65.25
78206;BME280;67480;48.920;12.880;2024-01-30T07:14:16;98483.34;;;0.88;65.53
78206;BME280;67480;48.920;12.880;2024-01-30T07:16:42;98478.44;;;0.85;65.88
78206;BME280;67480;48.920;12.880;2024-01-30T07:19:07;98481.72;;;0.87;65.97
78206;BME280;67480;48.920;12.880;2024-01-30T07:21:34;98484.31;;;0.87;65.49
78206;BME280;67480;48.920;12.880;2024-01-30T07:23:59;98481.59;;;0.89;65.75
78206;BME280;67480;48.920;12.880;2024-01-30T07:26:24;98479.00;;;0.89;65.82
78206;BME280;67480;48.920;12.880;2024-01-30T07:28:49;98486.75;;;0.89;65.92
78206;BME280;67480;48.920;12.880;2024-01-30T07:31:16;98490.03;;;0.91;65.87
78206;BME280;67480;48.920;12.880;2024-01-30T07:33:41;98488.41;;;0.90;66.01
78206;BME280;67480;48.920;12.880;2024-01-30T07:36:06;98491.09;;;0.88;66.44
78206;BME280;67480;48.920;12.880;2024-01-30T07:38:32;98492.84;;;0.88;66.16
78206;BME280;67480;48.920;12.880;2024-01-30T07:40:57;98487.44;;;0.91;66.37
78206;BME280;67480;48.920;12.880;2024-01-30T07:43:22;98492.50;;;0.92;66.24
78206;BME280;67480;48.920;12.880;2024-01-30T07:45:47;98477.84;;;0.93;66.26
78206;BME280;67480;48.920;12.880;2024-01-30T07:48:13;98493.31;;;0.93;66.87
78206;BME280;67480;48.920;12.880;2024-01-30T07:50:39;98494.13;;;0.93;66.54
78206;BME280;67480;48.920;12.880;2024-01-30T07:53:04;98500.81;;;0.96;66.62
78206;BME280;67480;48.920;12.880;2024-01-30T07:55:29;98497.28;;;0.97;67.02
78206;BME280;67480;48.920;12.880;2024-01-30T07:57:56;98492.84;;;0.99;66.82
78206;BME280;67480;48.920;12.880;2024-01-30T08:00:22;98485.81;;;1.01;66.84
78206;BME280;67480;48.920;12.880;2024-01-30T08:02:47;98495.06;;;1.04;66.94
78206;BME280;67480;48.920;12.880;2024-01-30T08:05:12;98513.00;;;1.05;67.15
78206;BME280;67480;48.920;12.880;2024-01-30T08:07:40;98512.75;;;1.08;67.39
78206;BME280;67480;48.920;12.880;2024-01-30T08:10:05;98505.84;;;1.09;67.31
78206;BME280;67480;48.920;12.880;2024-01-30T08:12:31;98511.00;;;1.09;67.24
78206;BME280;67480;48.920;12.880;2024-01-30T08:14:56;98521.31;;;1.09;67.35
78206;BME280;67480;48.920;12.880;2024-01-30T08:17:21;98516.28;;;1.07;67.51
78206;BME280;67480;48.920;12.880;2024-01-30T08:19:46;98511.13;;;1.07;67.24
78206;BME280;67480;48.920;12.880;2024-01-30T08:22:12;98502.44;;;1.08;67.68
78206;BME280;67480;48.920;12.880;2024-01-30T08:24:37;98516.06;;;1.10;67.58
78206;BME280;67480;48.920;12.880;2024-01-30T08:27:02;98519.34;;;1.12;67.67
78206;BME280;67480;48.920;12.880;2024-01-30T08:29:30;98517.34;;;1.16;67.49
78206;BME280;67480;48.920;12.880;2024-01-30T08:31:55;98515.56;;;1.16;67.40
78206;BME280;67480;48.920;12.880;2024-01-30T08:34:20;98518.84;;;1.19;67.31
78206;BME280;67480;48.920;12.880;2024-01-30T08:36:46;98512.63;;;1.21;67.25
78206;BME280;67480;48.920;12.880;2024-01-30T08:39:11;98513.44;;;1.22;67.03
78206;BME280;67480;48.920;12.880;2024-01-30T08:41:36;98515.88;;;1.23;67.14
78206;BME280;67480;48.920;12.880;2024-01-30T08:44:01;98518.38;;;1.25;66.75
78206;BME280;67480;48.920;12.880;2024-01-30T08:46:26;98518.94;;;1.28;67.15
78206;BME280;67480;48.920;12.880;2024-01-30T08:48:52;98520.47;;;1.31;67.28
78206;BME280;67480;48.920;12.880;2024-01-30T08:51:17;98524.69;;;1.32;67.16
78206;BME280;67480;48.920;12.880;2024-01-30T08:53:42;98522.78;;;1.34;66.81
78206;BME280;67480;48.920;12.880;2024-01-30T08:56:08;98522.78;;;1.34;66.83
78206;BME280;67480;48.920;12.880;2024-01-30T08:58:33;98527.97;;;1.34;66.76
78206;BME280;67480;48.920;12.880;2024-01-30T09:00:58;98525.28;;;1.35;66.27
78206;BME280;67480;48.920;12.880;2024-01-30T09:03:23;98527.72;;;1.37;66.34
78206;BME280;67480;48.920;12.880;2024-01-30T09:05:49;98520.66;;;1.39;66.30
78206;BME280;67480;48.920;12.880;2024-01-30T09:08:14;98525.59;;;1.42;66.21
78206;BME280;67480;48.920;12.880;2024-01-30T09:10:39;98515.97;;;1.44;66.35
78206;BME280;67480;48.920;12.880;2024-01-30T09:13:05;98524.53;;;1.45;66.20
78206;BME280;67480;48.920;12.880;2024-01-30T09:15:30;98521.94;;;1.45;66.40
78206;BME280;67480;48.920;12.880;2024-01-30T09:17:56;98517.59;;;1.45;66.39
78206;BME280;67480;48.920;12.880;2024-01-30T09:20:21;98516.66;;;1.46;66.60
78206;BME280;67480;48.920;12.880;2024-01-30T09:22:47;98521.59;;;1.49;66.85
78206;BME280;67480;48.920;12.880;2024-01-30T09:25:12;98520.63;;;1.50;66.74
78206;BME280;67480;48.920;12.880;2024-01-30T09:27:37;98517.81;;;1.53;66.45
78206;BME280;67480;48.920;12.880;2024-01-30T09:30:03;98528.03;;;1.55;66.58
78206;BME280;67480;48.920;12.880;2024-01-30T09:32:28;98523.53;;;1.57;66.59
78206;BME280;67480;48.920;12.880;2024-01-30T09:34:53;98525.75;;;1.61;66.59
78206;BME280;67480;48.920;12.880;2024-01-30T09:37:18;98523.88;;;1.64;66.46
78206;BME280;67480;48.920;12.880;2024-01-30T09:39:44;98526.47;;;1.64;66.38
78206;BME280;67480;48.920;12.880;2024-01-30T09:42:51;98528.09;;;1.65;66.69
78206;BME280;67480;48.920;12.880;2024-01-30T09:44:57;98530.56;;;1.66;66.77
78206;BME280;67480;48.920;12.880;2024-01-30T09:47:22;98535.59;;;1.68;66.42
78206;BME280;67480;48.920;12.880;2024-01-30T09:49:47;98531.25;;;1.68;66.50
78206;BME280;67480;48.920;12.880;2024-01-30T09:52:13;98545.03;;;1.69;66.60
78206;BME280;67480;48.920;12.880;2024-01-30T09:54:40;98544.88;;;1.70;66.55
78206;BME280;67480;48.920;12.880;2024-01-30T09:57:06;98550.63;;;1.74;66.56
78206;BME280;67480;48.920;12.880;2024-01-30T09:59:32;98542.75;;;1.75;66.64
78206;BME280;67480;48.920;12.880;2024-01-30T10:01:57;98542.63;;;1.77;66.59
78206;BME280;67480;48.920;12.880;2024-01-30T10:04:23;98540.72;;;1.79;66.38
78206;BME280;67480;48.920;12.880;2024-01-30T10:06:48;98534.63;;;1.80;66.69
78206;BME280;67480;48.920;12.880;2024-01-30T10:09:13;98536.25;;;1.81;66.39
78206;BME280;67480;48.920;12.880;2024-01-30T10:11:39;98529.22;;;1.83;66.45
78206;BME280;67480;48.920;12.880;2024-01-30T10:14:04;98523.78;;;1.86;66.34
78206;BME280;67480;48.920;12.880;2024-01-30T10:16:29;98519.44;;;1.87;66.19
78206;BME280;67480;48.920;12.880;2024-01-30T10:18:55;98516.03;;;1.86;66.21
78206;BME280;67480;48.920;12.880;2024-01-30T10:21:20;98521.75;;;1.90;66.17
78206;BME280;67480;48.920;12.880;2024-01-30T10:23:46;98511.31;;;1.91;66.42
78206;BME280;67480;48.920;12.880;2024-01-30T10:26:11;98507.53;;;1.95;66.08
78206;BME280;67480;48.920;12.880;2024-01-30T10:28:36;98505.63;;;1.97;66.35
78206;BME280;67480;48.920;12.880;2024-01-30T10:31:02;98495.28;;;1.97;66.33
78206;BME280;67480;48.920;12.880;2024-01-30T10:33:29;98494.22;;;2.00;66.36
78206;BME280;67480;48.920;12.880;2024-01-30T10:35:55;98488.09;;;2.01;66.18
78206;BME280;67480;48.920;12.880;2024-01-30T10:38:25;98487.97;;;2.02;66.27
78206;BME280;67480;48.920;12.880;2024-01-30T10:40:52;98483.47;;;2.04;66.42
78206;BME280;67480;48.920;12.880;2024-01-30T10:43:20;98477.38;;;2.05;66.33
78206;BME280;67480;48.920;12.880;2024-01-30T10:45:47;98482.28;;;2.09;66.06
78206;BME280;67480;48.920;12.880;2024-01-30T10:48:14;98476.88;;;2.12;66.12
78206;BME280;67480;48.920;12.880;2024-01-30T10:50:41;98470.47;;;2.16;66.18
78206;BME280;67480;48.920;12.880;2024-01-30T10:53:07;98472.00;;;2.18;66.16
78206;BME280;67480;48.920;12.880;2024-01-30T10:55:33;98464.66;;;2.23;66.16
78206;BME280;67480;48.920;12.880;2024-01-30T10:57:58;98461.00;;;2.26;66.13
78206;BME280;67480;48.920;12.880;2024-01-30T11:00:24;98463.34;;;2.29;66.02
78206;BME280;67480;48.920;12.880;2024-01-30T11:02:51;98460.63;;;2.31;65.94
78206;BME280;67480;48.920;12.880;2024-01-30T11:05:23;98456.97;;;2.33;65.66
78206;BME280;67480;48.920;12.880;2024-01-30T11:07:49;98442.13;;;2.35;65.94
78206;BME280;67480;48.920;12.880;2024-01-30T11:10:15;98448.09;;;2.36;65.88
78206;BME280;67480;48.920;12.880;2024-01-30T11:12:40;98452.19;;;2.38;65.99
78206;BME280;67480;48.920;12.880;2024-01-30T11:15:09;98446.75;;;2.41;65.85
78206;BME280;67480;48.920;12.880;2024-01-30T11:17:53;98446.25;;;2.47;65.94
78206;BME280;67480;48.920;12.880;2024-01-30T11:20:25;98444.34;;;2.49;65.78
78206;BME280;67480;48.920;12.880;2024-01-30T11:22:51;98449.25;;;2.52;65.68
78206;BME280;67480;48.920;12.880;2024-01-30T11:25:18;98439.47;;;2.56;66.11
78206;BME280;67480;48.920;12.880;2024-01-30T11:27:44;98441.66;;;2.61;65.65
78206;BME280;67480;48.920;12.880;2024-01-30T11:30:10;98439.75;;;2.63;65.82
78206;BME280;67480;48.920;12.880;2024-01-30T11:32:35;98435.28;;;2.65;66.09
78206;BME280;67480;48.920;12.880;2024-01-30T11:35:02;98439.22;;;2.69;66.09
78206;BME280;67480;48.920;12.880;2024-01-30T11:37:28;98439.13;;;2.70;65.98
78206;BME280;67480;48.920;12.880;2024-01-30T11:39:55;98436.25;;;2.73;65.84
78206;BME280;67480;48.920;12.880;2024-01-30T11:42:22;98438.56;;;2.77;65.82
78206;BME280;67480;48.920;12.880;2024-01-30T11:44:49;98434.91;;;2.79;66.19
78206;BME280;67480;48.920;12.880;2024-01-30T11:47:15;98438.19;;;2.81;66.02
78206;BME280;67480;48.920;12.880;2024-01-30T11:49:40;98439.00;;;2.82;66.49
78206;BME280;67480;48.920;12.880;2024-01-30T11:52:06;98435.59;;;2.81;66.13
78206;BME280;67480;48.920;12.880;2024-01-30T11:54:31;98431.94;;;2.84;66.43
78206;BME280;67480;48.920;12.880;2024-01-30T11:56:56;98431.09;;;2.83;66.22
78206;BME280;67480;48.920;12.880;2024-01-30T11:59:22;98427.56;;;2.84;66.73
78206;BME280;67480;48.920;12.880;2024-01-30T12:01:47;98421.69;;;2.82;66.13
78206;BME280;67480;48.920;12.880;2024-01-30T12:04:12;98422.38;;;2.84;66.79
78206;BME280;67480;48.920;12.880;2024-01-30T12:06:38;98417.88;;;2.86;66.31
78206;BME280;67480;48.920;12.880;2024-01-30T12:09:03;98422.13;;;2.87;66.81
78206;BME280;67480;48.920;12.880;2024-01-30T12:11:29;98416.66;;;2.90;66.54
78206;BME280;67480;48.920;12.880;2024-01-30T12:13:55;98419.09;;;2.92;66.60
78206;BME280;67480;48.920;12.880;2024-01-30T12:16:20;98411.34;;;2.92;66.53
78206;BME280;67480;48.920;12.880;2024-01-30T12:18:46;98408.63;;;2.93;66.27
78206;BME280;67480;48.920;12.880;2024-01-30T12:21:11;98399.78;;;2.96;66.64
78206;BME280;67480;48.920;12.880;2024-01-30T12:23:36;98416.81;;;2.99;66.44
78206;BME280;67480;48.920;12.880;2024-01-30T12:26:02;98407.97;;;3.01;66.26
78206;BME280;67480;48.920;12.880;2024-01-30T12:28:28;98398.25;;;3.03;66.37
78206;BME280;67480;48.920;12.880;2024-01-30T12:30:55;98397.19;;;3.06;66.15
78206;BME280;67480;48.920;12.880;2024-01-30T12:33:20;98400.34;;;3.09;66.63
78206;BME280;67480;48.920;12.880;2024-01-30T12:35:46;98399.09;;;3.13;66.85
78206;BME280;67480;48.920;12.880;2024-01-30T12:38:12;98402.22;;;3.17;66.59
78206;BME280;67480;48.920;12.880;2024-01-30T12:40:38;98391.75;;;3.18;66.34
78206;BME280;67480;48.920;12.880;2024-01-30T12:43:04;98394.88;;;3.22;65.99
78206;BME280;67480;48.920;12.880;2024-01-30T12:45:29;98394.59;;;3.25;66.54
78206;BME280;67480;48.920;12.880;2024-01-30T12:47:55;98391.88;;;3.27;66.65
78206;BME280;67480;48.920;12.880;2024-01-30T12:50:20;98395.97;;;3.29;66.20